Terminal Aerodrome Forecast
Issued by NWS

Home | Current Version | Previous Version | Text Only | Print | Product List | Glossary On
Versions: 1 2 3 4 5 6 7 8 9 10 11 12 13
000
FTUS45 KREV 261700
TAFMMH
TAF
KMMH 261731Z 2618/2718 13008KT P6SM SCT120 BKN180
     FM270200 VRB04KT P6SM BKN070 OVC120
     FM270800 VRB03KT P6SM VCSH SCT040 OVC070
     FM271400 VRB03KT 2SM -SHSN BKN030 OVC050=

USA.gov is the U.S. government's official web portal to all federal, state and local government web resources and services.